This is the latest recevied weather packets stored in our database for station/object KQ4WWD. If no packets are shown the sender has not sent any weather packets the latest 1 day(s).
| Time | Temp. | Humidity | Pressure | Rain* | Wind** | Luminosity | Snow |
|---|---|---|---|---|---|---|---|
| 1777998243 | 27.78° C | 58% | 1016.4 hPa | 0 mm | 0.45 m/s, 95° | 780 W/m² | - |
| 1777997940 | 28.33° C | 56% | 1016.6 hPa | 0 mm | 2.24 m/s, 172° | 426 W/m² | - |
| 1777997637 | 27.78° C | 58% | 1016.5 hPa | 0 mm | 1.34 m/s, 126° | 776 W/m² | - |
| 1777997335 | 27.78° C | 59% | 1016.4 hPa | 0 mm | 0.45 m/s, 181° | 718 W/m² | - |
| 1777997033 | 27.78° C | 56% | 1016.3 hPa | 0 mm | 0.89 m/s, 94° | 334 W/m² | - |
| 1777996729 | 27.78° C | 58% | 1016.3 hPa | 0 mm | 1.34 m/s, 116° | 710 W/m² | - |
| 1777996425 | 27.22° C | 59% | 1016.3 hPa | 0 mm | 0.89 m/s, 70° | 707 W/m² | - |
| 1777996122 | 27.78° C | 58% | 1016.3 hPa | 0 mm | 0 m/s | 757 W/m² | - |
| 1777995818 | 27.22° C | 62% | 1016.5 hPa | 0 mm | 0 m/s | 761 W/m² | - |
| 1777995514 | 26.67° C | 65% | 1016.2 hPa | 0 mm | 0.89 m/s, 134° | 249 W/m² | - |
| 1777995211 | 26.67° C | 65% | 1016.2 hPa | 0 mm | 1.34 m/s, 120° | 295 W/m² | - |
| 1777994908 | 28.33° C | 63% | 1016.4 hPa | 0 mm | 1.79 m/s, 159° | 344 W/m² | - |
| 1777994606 | 26.67° C | 64% | 1016.4 hPa | 0 mm | 2.24 m/s, 140° | 837 W/m² | - |
| 1777994306 | 26.67° C | 66% | 1016.4 hPa | 0 mm | 0 m/s | 677 W/m² | - |
| 1777994003 | 27.22° C | 66% | 1016.3 hPa | 0 mm | 0.45 m/s, 66° | 707 W/m² | - |
| 1777993699 | 26.11° C | 69% | 1016.5 hPa | 0 mm | 0.45 m/s, 115° | 736 W/m² | - |
| 1777993397 | 26.11° C | 71% | 1016.3 hPa | 0 mm | 1.79 m/s, 173° | 271 W/m² | - |
| 1777993091 | 26.67° C | 69% | 1016.4 hPa | 0 mm | 1.79 m/s, 104° | 398 W/m² | - |
| 1777992790 | 26.67° C | 70% | 1016.2 hPa | 0 mm | 0 m/s | 829 W/m² | - |
| 1777992487 | 26.11° C | 69% | 1016.4 hPa | 0 mm | 2.24 m/s, 153° | 769 W/m² | - |
| 1777992186 | 25.56° C | 71% | 1016.3 hPa | 0 mm | 0.89 m/s, 124° | 696 W/m² | - |
| 1777991882 | 25.56° C | 71% | 1016.3 hPa | 0 mm | 3.13 m/s, 58° | 721 W/m² | - |
| 1777991579 | 26.11° C | 71% | 1016.3 hPa | 0 mm | 1.34 m/s, 94° | 707 W/m² | - |
| 1777991276 | 25.56° C | 72% | 1016.3 hPa | 0 mm | 1.34 m/s, 130° | 631 W/m² | - |
| 1777990973 | 25.56° C | 71% | 1016.5 hPa | 0 mm | 2.68 m/s, 124° | 572 W/m² | - |
* Rain latest hour (hover to see other rain measurements)
** Current wind speed in m/s (hover to see current wind gust speed)